sensor_id;sensor_type;location;lat;lon;timestamp;temperature;humidity
4530;DHT22;2277;51.626;7.516;2024-03-06T00:01:32;9.20;99.90
4530;DHT22;2277;51.626;7.516;2024-03-06T00:03:57;9.20;99.90
4530;DHT22;2277;51.626;7.516;2024-03-06T00:06:23;9.20;99.90
4530;DHT22;2277;51.626;7.516;2024-03-06T00:08:50;9.20;99.90
4530;DHT22;2277;51.626;7.516;2024-03-06T00:11:15;9.20;99.90
4530;DHT22;2277;51.626;7.516;2024-03-06T00:13:41;9.20;99.90
4530;DHT22;2277;51.626;7.516;2024-03-06T00:16:07;9.20;99.90
4530;DHT22;2277;51.626;7.516;2024-03-06T00:18:32;9.20;99.90
4530;DHT22;2277;51.626;7.516;2024-03-06T00:20:58;9.10;99.90
4530;DHT22;2277;51.626;7.516;2024-03-06T00:23:24;9.10;99.90
4530;DHT22;2277;51.626;7.516;2024-03-06T00:25:50;9.00;99.90
4530;DHT22;2277;51.626;7.516;2024-03-06T00:28:15;9.00;99.90
4530;DHT22;2277;51.626;7.516;2024-03-06T00:30:41;9.10;99.90
4530;DHT22;2277;51.626;7.516;2024-03-06T00:33:07;9.10;99.90
4530;DHT22;2277;51.626;7.516;2024-03-06T00:35:33;9.10;99.90
4530;DHT22;2277;51.626;7.516;2024-03-06T00:37:58;9.10;99.90
4530;DHT22;2277;51.626;7.516;2024-03-06T00:40:28;9.10;99.90
4530;DHT22;2277;51.626;7.516;2024-03-06T00:42:56;9.00;99.90
4530;DHT22;2277;51.626;7.516;2024-03-06T00:45:22;9.00;99.90
4530;DHT22;2277;51.626;7.516;2024-03-06T00:47:48;9.00;99.90
4530;DHT22;2277;51.626;7.516;2024-03-06T00:50:14;9.10;99.90
4530;DHT22;2277;51.626;7.516;2024-03-06T00:52:42;9.10;99.90
4530;DHT22;2277;51.626;7.516;2024-03-06T00:55:09;9.10;99.90
4530;DHT22;2277;51.626;7.516;2024-03-06T00:57:35;9.10;99.90
4530;DHT22;2277;51.626;7.516;2024-03-06T01:00:02;9.10;99.90
4530;DHT22;2277;51.626;7.516;2024-03-06T01:02:31;9.10;99.90
4530;DHT22;2277;51.626;7.516;2024-03-06T01:04:57;9.20;99.90
4530;DHT22;2277;51.626;7.516;2024-03-06T01:07:22;9.10;99.90
4530;DHT22;2277;51.626;7.516;2024-03-06T01:09:48;9.10;99.90
4530;DHT22;2277;51.626;7.516;2024-03-06T01:12:14;9.10;99.90
4530;DHT22;2277;51.626;7.516;2024-03-06T01:14:39;9.10;99.90
4530;DHT22;2277;51.626;7.516;2024-03-06T01:17:05;9.10;99.90
4530;DHT22;2277;51.626;7.516;2024-03-06T01:19:31;9.10;99.90
4530;DHT22;2277;51.626;7.516;2024-03-06T01:21:57;9.10;99.90
4530;DHT22;2277;51.626;7.516;2024-03-06T01:24:22;9.10;99.90
4530;DHT22;2277;51.626;7.516;2024-03-06T01:26:48;9.00;99.90
4530;DHT22;2277;51.626;7.516;2024-03-06T01:29:13;9.00;99.90
4530;DHT22;2277;51.626;7.516;2024-03-06T01:31:39;9.00;99.90
4530;DHT22;2277;51.626;7.516;2024-03-06T01:34:04;9.00;99.90
4530;DHT22;2277;51.626;7.516;2024-03-06T01:36:30;9.00;99.90
4530;DHT22;2277;51.626;7.516;2024-03-06T01:38:56;9.00;99.90
4530;DHT22;2277;51.626;7.516;2024-03-06T01:41:21;9.00;99.90
4530;DHT22;2277;51.626;7.516;2024-03-06T01:43:47;8.90;99.90
4530;DHT22;2277;51.626;7.516;2024-03-06T01:46:12;8.90;99.90
4530;DHT22;2277;51.626;7.516;2024-03-06T01:48:38;8.90;99.90
4530;DHT22;2277;51.626;7.516;2024-03-06T01:51:04;8.90;99.90
4530;DHT22;2277;51.626;7.516;2024-03-06T01:53:31;8.80;99.90
4530;DHT22;2277;51.626;7.516;2024-03-06T01:55:59;8.80;99.90
4530;DHT22;2277;51.626;7.516;2024-03-06T01:58:25;8.80;99.90
4530;DHT22;2277;51.626;7.516;2024-03-06T02:00:50;8.80;99.90
4530;DHT22;2277;51.626;7.516;2024-03-06T02:03:17;8.80;99.90
4530;DHT22;2277;51.626;7.516;2024-03-06T02:05:44;8.80;99.90
4530;DHT22;2277;51.626;7.516;2024-03-06T02:08:10;8.80;99.90
4530;DHT22;2277;51.626;7.516;2024-03-06T02:10:35;8.80;99.90
4530;DHT22;2277;51.626;7.516;2024-03-06T02:13:01;8.70;99.90
4530;DHT22;2277;51.626;7.516;2024-03-06T02:15:27;8.80;99.90
4530;DHT22;2277;51.626;7.516;2024-03-06T02:17:52;8.80;99.90
4530;DHT22;2277;51.626;7.516;2024-03-06T02:20:25;8.80;99.90
4530;DHT22;2277;51.626;7.516;2024-03-06T02:22:50;8.80;99.90
4530;DHT22;2277;51.626;7.516;2024-03-06T02:25:16;8.80;99.90
4530;DHT22;2277;51.626;7.516;2024-03-06T02:27:43;8.80;99.90
4530;DHT22;2277;51.626;7.516;2024-03-06T02:30:09;8.70;99.90
4530;DHT22;2277;51.626;7.516;2024-03-06T02:32:35;8.70;99.90
4530;DHT22;2277;51.626;7.516;2024-03-06T02:35:01;8.70;99.90
4530;DHT22;2277;51.626;7.516;2024-03-06T02:37:33;8.60;99.90
4530;DHT22;2277;51.626;7.516;2024-03-06T02:40:01;8.60;99.90
4530;DHT22;2277;51.626;7.516;2024-03-06T02:42:28;8.70;99.90
4530;DHT22;2277;51.626;7.516;2024-03-06T02:44:54;8.70;99.90
4530;DHT22;2277;51.626;7.516;2024-03-06T02:47:20;8.70;99.90
4530;DHT22;2277;51.626;7.516;2024-03-06T02:49:45;8.70;99.90
4530;DHT22;2277;51.626;7.516;2024-03-06T02:52:11;8.70;99.90
4530;DHT22;2277;51.626;7.516;2024-03-06T02:54:37;8.70;99.90
4530;DHT22;2277;51.626;7.516;2024-03-06T02:57:02;8.70;99.90
4530;DHT22;2277;51.626;7.516;2024-03-06T02:59:28;8.70;99.90
4530;DHT22;2277;51.626;7.516;2024-03-06T03:01:53;8.70;99.90
4530;DHT22;2277;51.626;7.516;2024-03-06T03:04:19;8.70;99.90
4530;DHT22;2277;51.626;7.516;2024-03-06T03:06:44;8.70;99.90
4530;DHT22;2277;51.626;7.516;2024-03-06T03:09:10;8.70;99.90
4530;DHT22;2277;51.626;7.516;2024-03-06T03:11:38;8.70;99.90
4530;DHT22;2277;51.626;7.516;2024-03-06T03:14:04;8.70;99.90
4530;DHT22;2277;51.626;7.516;2024-03-06T03:16:30;8.70;99.90
4530;DHT22;2277;51.626;7.516;2024-03-06T03:18:57;8.70;99.90
4530;DHT22;2277;51.626;7.516;2024-03-06T03:21:23;8.70;99.90
4530;DHT22;2277;51.626;7.516;2024-03-06T03:23:48;8.70;99.90
4530;DHT22;2277;51.626;7.516;2024-03-06T03:26:15;8.70;99.90
4530;DHT22;2277;51.626;7.516;2024-03-06T03:28:41;8.60;99.90
4530;DHT22;2277;51.626;7.516;2024-03-06T03:31:07;8.60;99.90
4530;DHT22;2277;51.626;7.516;2024-03-06T03:33:43;8.60;99.90
4530;DHT22;2277;51.626;7.516;2024-03-06T03:36:09;8.60;99.90
4530;DHT22;2277;51.626;7.516;2024-03-06T03:38:38;8.50;99.90
4530;DHT22;2277;51.626;7.516;2024-03-06T03:41:09;8.60;99.90
4530;DHT22;2277;51.626;7.516;2024-03-06T03:43:35;8.50;99.90
4530;DHT22;2277;51.626;7.516;2024-03-06T03:46:01;8.50;99.90
4530;DHT22;2277;51.626;7.516;2024-03-06T03:48:26;8.50;99.90
4530;DHT22;2277;51.626;7.516;2024-03-06T03:50:52;8.50;99.90
4530;DHT22;2277;51.626;7.516;2024-03-06T03:53:17;8.40;99.90
4530;DHT22;2277;51.626;7.516;2024-03-06T03:55:43;8.40;99.90
4530;DHT22;2277;51.626;7.516;2024-03-06T03:58:08;8.30;99.90
4530;DHT22;2277;51.626;7.516;2024-03-06T04:00:34;8.30;99.90
4530;DHT22;2277;51.626;7.516;2024-03-06T04:03:00;8.30;99.90
4530;DHT22;2277;51.626;7.516;2024-03-06T04:05:25;8.30;99.90
4530;DHT22;2277;51.626;7.516;2024-03-06T04:07:51;8.20;99.90
4530;DHT22;2277;51.626;7.516;2024-03-06T04:10:17;8.20;99.90
4530;DHT22;2277;51.626;7.516;2024-03-06T04:12:42;8.10;99.90
4530;DHT22;2277;51.626;7.516;2024-03-06T04:15:08;8.10;99.90
4530;DHT22;2277;51.626;7.516;2024-03-06T04:17:34;8.00;99.90
4530;DHT22;2277;51.626;7.516;2024-03-06T04:20:02;8.00;99.90
4530;DHT22;2277;51.626;7.516;2024-03-06T04:22:28;7.90;99.90
4530;DHT22;2277;51.626;7.516;2024-03-06T04:24:54;7.90;99.90
4530;DHT22;2277;51.626;7.516;2024-03-06T04:27:21;7.90;99.90
4530;DHT22;2277;51.626;7.516;2024-03-06T04:29:46;7.80;99.90
4530;DHT22;2277;51.626;7.516;2024-03-06T04:32:12;7.80;99.90
4530;DHT22;2277;51.626;7.516;2024-03-06T04:34:37;7.80;99.90
4530;DHT22;2277;51.626;7.516;2024-03-06T04:37:04;7.70;99.90
4530;DHT22;2277;51.626;7.516;2024-03-06T04:39:29;7.70;99.90
4530;DHT22;2277;51.626;7.516;2024-03-06T04:41:55;7.70;99.90
4530;DHT22;2277;51.626;7.516;2024-03-06T04:44:20;7.80;99.90
4530;DHT22;2277;51.626;7.516;2024-03-06T04:46:49;7.80;99.90
4530;DHT22;2277;51.626;7.516;2024-03-06T04:49:14;7.70;99.90
4530;DHT22;2277;51.626;7.516;2024-03-06T04:51:40;7.60;99.90
4530;DHT22;2277;51.626;7.516;2024-03-06T04:54:05;7.70;99.90
4530;DHT22;2277;51.626;7.516;2024-03-06T04:56:31;7.60;99.90
4530;DHT22;2277;51.626;7.516;2024-03-06T04:58:56;7.60;99.90
4530;DHT22;2277;51.626;7.516;2024-03-06T05:01:28;7.60;99.90
4530;DHT22;2277;51.626;7.516;2024-03-06T05:03:54;7.60;99.90
4530;DHT22;2277;51.626;7.516;2024-03-06T05:06:21;7.50;99.90
4530;DHT22;2277;51.626;7.516;2024-03-06T05:08:47;7.60;99.90
4530;DHT22;2277;51.626;7.516;2024-03-06T05:11:13;7.60;99.90
4530;DHT22;2277;51.626;7.516;2024-03-06T05:13:39;7.50;99.90
4530;DHT22;2277;51.626;7.516;2024-03-06T05:16:05;7.50;99.90
4530;DHT22;2277;51.626;7.516;2024-03-06T05:18:31;7.50;99.90
4530;DHT22;2277;51.626;7.516;2024-03-06T05:20:56;7.50;99.90
4530;DHT22;2277;51.626;7.516;2024-03-06T05:23:22;7.50;99.90
4530;DHT22;2277;51.626;7.516;2024-03-06T05:25:48;7.50;99.90
4530;DHT22;2277;51.626;7.516;2024-03-06T05:28:14;7.50;99.90
4530;DHT22;2277;51.626;7.516;2024-03-06T05:30:39;7.50;99.90
4530;DHT22;2277;51.626;7.516;2024-03-06T05:33:05;7.50;99.90
4530;DHT22;2277;51.626;7.516;2024-03-06T05:35:31;7.50;99.90
4530;DHT22;2277;51.626;7.516;2024-03-06T05:37:56;7.50;99.90
4530;DHT22;2277;51.626;7.516;2024-03-06T05:40:22;7.50;99.90
4530;DHT22;2277;51.626;7.516;2024-03-06T05:42:47;7.50;99.90
4530;DHT22;2277;51.626;7.516;2024-03-06T05:45:13;7.50;99.90
4530;DHT22;2277;51.626;7.516;2024-03-06T05:47:39;7.40;99.90
4530;DHT22;2277;51.626;7.516;2024-03-06T05:50:06;7.40;99.90
4530;DHT22;2277;51.626;7.516;2024-03-06T05:52:32;7.30;99.90
4530;DHT22;2277;51.626;7.516;2024-03-06T05:54:58;7.20;99.90
4530;DHT22;2277;51.626;7.516;2024-03-06T05:57:23;7.20;99.90
4530;DHT22;2277;51.626;7.516;2024-03-06T05:59:50;7.30;99.90
4530;DHT22;2277;51.626;7.516;2024-03-06T06:02:15;7.30;99.90
4530;DHT22;2277;51.626;7.516;2024-03-06T06:04:45;7.30;99.90
4530;DHT22;2277;51.626;7.516;2024-03-06T06:07:11;7.30;99.90
4530;DHT22;2277;51.626;7.516;2024-03-06T06:09:36;7.20;99.90
4530;DHT22;2277;51.626;7.516;2024-03-06T06:12:02;7.20;99.90
4530;DHT22;2277;51.626;7.516;2024-03-06T06:14:28;7.20;99.90
4530;DHT22;2277;51.626;7.516;2024-03-06T06:16:55;7.20;99.90
4530;DHT22;2277;51.626;7.516;2024-03-06T06:19:21;7.20;99.90
4530;DHT22;2277;51.626;7.516;2024-03-06T06:21:47;7.20;99.90
4530;DHT22;2277;51.626;7.516;2024-03-06T06:24:13;7.20;99.90
4530;DHT22;2277;51.626;7.516;2024-03-06T06:26:39;7.20;99.90
4530;DHT22;2277;51.626;7.516;2024-03-06T06:29:04;7.10;99.90
4530;DHT22;2277;51.626;7.516;2024-03-06T06:31:30;7.10;99.90
4530;DHT22;2277;51.626;7.516;2024-03-06T06:33:56;7.10;99.90
4530;DHT22;2277;51.626;7.516;2024-03-06T06:36:22;7.10;99.90
4530;DHT22;2277;51.626;7.516;2024-03-06T06:38:48;7.10;99.90
4530;DHT22;2277;51.626;7.516;2024-03-06T06:41:15;7.10;99.90
4530;DHT22;2277;51.626;7.516;2024-03-06T06:43:41;7.10;99.90
4530;DHT22;2277;51.626;7.516;2024-03-06T06:46:08;7.10;99.90
4530;DHT22;2277;51.626;7.516;2024-03-06T06:48:33;7.10;99.90
4530;DHT22;2277;51.626;7.516;2024-03-06T06:51:03;7.10;99.90
4530;DHT22;2277;51.626;7.516;2024-03-06T06:53:31;7.10;99.90
4530;DHT22;2277;51.626;7.516;2024-03-06T06:55:58;7.10;99.90
4530;DHT22;2277;51.626;7.516;2024-03-06T06:58:23;7.10;99.90
4530;DHT22;2277;51.626;7.516;2024-03-06T07:00:49;7.10;99.90
4530;DHT22;2277;51.626;7.516;2024-03-06T07:03:15;7.10;99.90
4530;DHT22;2277;51.626;7.516;2024-03-06T07:05:40;7.00;99.90
4530;DHT22;2277;51.626;7.516;2024-03-06T07:08:09;7.10;99.90
4530;DHT22;2277;51.626;7.516;2024-03-06T07:10:34;7.10;99.90
4530;DHT22;2277;51.626;7.516;2024-03-06T07:13:02;7.10;99.90
4530;DHT22;2277;51.626;7.516;2024-03-06T07:15:28;7.00;99.90
4530;DHT22;2277;51.626;7.516;2024-03-06T07:17:54;7.00;99.90
4530;DHT22;2277;51.626;7.516;2024-03-06T07:20:19;7.00;99.90
4530;DHT22;2277;51.626;7.516;2024-03-06T07:22:45;6.90;99.90
4530;DHT22;2277;51.626;7.516;2024-03-06T07:25:11;6.90;99.90
4530;DHT22;2277;51.626;7.516;2024-03-06T07:27:36;6.90;99.90
4530;DHT22;2277;51.626;7.516;2024-03-06T07:30:02;6.90;99.90
4530;DHT22;2277;51.626;7.516;2024-03-06T07:32:27;7.00;99.90
4530;DHT22;2277;51.626;7.516;2024-03-06T07:34:53;7.00;99.90
4530;DHT22;2277;51.626;7.516;2024-03-06T07:37:19;7.10;99.90
4530;DHT22;2277;51.626;7.516;2024-03-06T07:39:44;7.10;99.90
4530;DHT22;2277;51.626;7.516;2024-03-06T07:42:11;7.20;99.90
4530;DHT22;2277;51.626;7.516;2024-03-06T07:44:36;7.20;99.90
4530;DHT22;2277;51.626;7.516;2024-03-06T07:47:02;7.20;99.90
4530;DHT22;2277;51.626;7.516;2024-03-06T07:49:28;7.30;99.90
4530;DHT22;2277;51.626;7.516;2024-03-06T07:51:53;7.30;99.90
4530;DHT22;2277;51.626;7.516;2024-03-06T07:54:19;7.40;99.90
4530;DHT22;2277;51.626;7.516;2024-03-06T07:56:45;7.50;99.90
4530;DHT22;2277;51.626;7.516;2024-03-06T07:59:10;7.50;99.90
4530;DHT22;2277;51.626;7.516;2024-03-06T08:01:38;7.60;99.90
4530;DHT22;2277;51.626;7.516;2024-03-06T08:04:04;7.60;99.90
4530;DHT22;2277;51.626;7.516;2024-03-06T08:06:29;7.60;99.90
4530;DHT22;2277;51.626;7.516;2024-03-06T08:08:58;7.60;99.90
4530;DHT22;2277;51.626;7.516;2024-03-06T08:11:24;7.60;99.90
4530;DHT22;2277;51.626;7.516;2024-03-06T08:13:50;7.60;99.90
4530;DHT22;2277;51.626;7.516;2024-03-06T08:16:15;7.70;99.90
4530;DHT22;2277;51.626;7.516;2024-03-06T08:18:42;7.80;99.90
4530;DHT22;2277;51.626;7.516;2024-03-06T08:21:08;8.00;99.90
4530;DHT22;2277;51.626;7.516;2024-03-06T08:23:34;8.10;99.90
4530;DHT22;2277;51.626;7.516;2024-03-06T08:26:00;8.20;99.90
4530;DHT22;2277;51.626;7.516;2024-03-06T08:28:25;8.30;99.90
4530;DHT22;2277;51.626;7.516;2024-03-06T08:30:52;8.40;99.90
4530;DHT22;2277;51.626;7.516;2024-03-06T08:33:17;8.60;99.90
4530;DHT22;2277;51.626;7.516;2024-03-06T08:35:43;8.80;99.90
4530;DHT22;2277;51.626;7.516;2024-03-06T08:38:09;8.80;99.90
4530;DHT22;2277;51.626;7.516;2024-03-06T08:40:34;9.00;99.90
4530;DHT22;2277;51.626;7.516;2024-03-06T08:43:00;9.20;99.90
4530;DHT22;2277;51.626;7.516;2024-03-06T08:45:25;9.40;99.90
4530;DHT22;2277;51.626;7.516;2024-03-06T08:47:51;9.60;99.90
4530;DHT22;2277;51.626;7.516;2024-03-06T08:50:19;9.80;99.90
4530;DHT22;2277;51.626;7.516;2024-03-06T08:52:46;10.00;99.90
4530;DHT22;2277;51.626;7.516;2024-03-06T08:55:11;10.00;99.90
4530;DHT22;2277;51.626;7.516;2024-03-06T08:57:38;10.20;99.90
4530;DHT22;2277;51.626;7.516;2024-03-06T09:00:05;10.50;99.90
4530;DHT22;2277;51.626;7.516;2024-03-06T09:02:36;10.70;99.90
4530;DHT22;2277;51.626;7.516;2024-03-06T09:05:04;11.00;99.90
4530;DHT22;2277;51.626;7.516;2024-03-06T09:07:30;11.10;99.90
4530;DHT22;2277;51.626;7.516;2024-03-06T09:09:56;11.20;99.90
4530;DHT22;2277;51.626;7.516;2024-03-06T09:12:22;11.40;99.90
4530;DHT22;2277;51.626;7.516;2024-03-06T09:14:47;11.80;99.90
4530;DHT22;2277;51.626;7.516;2024-03-06T09:17:13;12.00;99.90
4530;DHT22;2277;51.626;7.516;2024-03-06T09:19:40;12.10;99.90
4530;DHT22;2277;51.626;7.516;2024-03-06T09:22:06;12.30;99.90
4530;DHT22;2277;51.626;7.516;2024-03-06T09:24:32;12.50;99.90
4530;DHT22;2277;51.626;7.516;2024-03-06T09:26:58;12.70;99.90
4530;DHT22;2277;51.626;7.516;2024-03-06T09:29:24;12.90;99.90
4530;DHT22;2277;51.626;7.516;2024-03-06T09:31:49;13.20;99.90
4530;DHT22;2277;51.626;7.516;2024-03-06T09:34:15;13.30;99.90
4530;DHT22;2277;51.626;7.516;2024-03-06T09:36:45;13.50;99.90
4530;DHT22;2277;51.626;7.516;2024-03-06T09:39:15;13.60;99.90
4530;DHT22;2277;51.626;7.516;2024-03-06T09:41:50;13.90;99.90
4530;DHT22;2277;51.626;7.516;2024-03-06T09:44:17;14.20;99.90
4530;DHT22;2277;51.626;7.516;2024-03-06T09:46:47;14.30;99.90
4530;DHT22;2277;51.626;7.516;2024-03-06T09:49:15;14.60;99.90
4530;DHT22;2277;51.626;7.516;2024-03-06T09:51:45;14.90;99.90
4530;DHT22;2277;51.626;7.516;2024-03-06T09:54:12;15.00;99.90
4530;DHT22;2277;51.626;7.516;2024-03-06T09:56:41;15.20;99.90
4530;DHT22;2277;51.626;7.516;2024-03-06T09:59:07;15.40;99.90
4530;DHT22;2277;51.626;7.516;2024-03-06T10:02:10;15.20;99.90
4530;DHT22;2277;51.626;7.516;2024-03-06T10:04:28;15.30;99.90
4530;DHT22;2277;51.626;7.516;2024-03-06T10:06:58;15.70;99.90
4530;DHT22;2277;51.626;7.516;2024-03-06T10:09:25;15.90;99.90
4530;DHT22;2277;51.626;7.516;2024-03-06T10:11:51;16.10;99.90
4530;DHT22;2277;51.626;7.516;2024-03-06T10:14:22;16.40;99.90
4530;DHT22;2277;51.626;7.516;2024-03-06T10:16:53;16.60;99.90
4530;DHT22;2277;51.626;7.516;2024-03-06T10:19:19;16.80;99.90
4530;DHT22;2277;51.626;7.516;2024-03-06T10:21:48;17.00;99.90
4530;DHT22;2277;51.626;7.516;2024-03-06T10:24:21;17.10;99.90
4530;DHT22;2277;51.626;7.516;2024-03-06T10:26:49;17.40;99.90
4530;DHT22;2277;51.626;7.516;2024-03-06T10:29:18;17.60;99.90
4530;DHT22;2277;51.626;7.516;2024-03-06T10:31:48;17.80;99.90
4530;DHT22;2277;51.626;7.516;2024-03-06T10:34:14;17.80;99.90
4530;DHT22;2277;51.626;7.516;2024-03-06T10:36:39;18.00;99.90
4530;DHT22;2277;51.626;7.516;2024-03-06T10:39:07;17.90;99.90
4530;DHT22;2277;51.626;7.516;2024-03-06T10:41:36;18.00;99.90
4530;DHT22;2277;51.626;7.516;2024-03-06T10:44:02;17.90;99.90
4530;DHT22;2277;51.626;7.516;2024-03-06T10:46:29;17.70;99.90
4530;DHT22;2277;51.626;7.516;2024-03-06T10:48:55;17.50;99.90
4530;DHT22;2277;51.626;7.516;2024-03-06T10:51:24;17.40;99.90
4530;DHT22;2277;51.626;7.516;2024-03-06T10:53:50;17.20;99.90
4530;DHT22;2277;51.626;7.516;2024-03-06T10:56:17;17.00;99.90
4530;DHT22;2277;51.626;7.516;2024-03-06T10:58:44;16.80;99.90
4530;DHT22;2277;51.626;7.516;2024-03-06T11:01:10;16.80;99.90
4530;DHT22;2277;51.626;7.516;2024-03-06T11:03:42;16.70;99.90
4530;DHT22;2277;51.626;7.516;2024-03-06T11:06:13;16.40;99.90
4530;DHT22;2277;51.626;7.516;2024-03-06T11:08:39;16.20;99.90
4530;DHT22;2277;51.626;7.516;2024-03-06T11:11:24;16.00;99.90
4530;DHT22;2277;51.626;7.516;2024-03-06T11:13:54;15.80;99.90
4530;DHT22;2277;51.626;7.516;2024-03-06T11:16:27;15.70;99.90
4530;DHT22;2277;51.626;7.516;2024-03-06T11:19:07;15.70;99.90
4530;DHT22;2277;51.626;7.516;2024-03-06T11:21:33;15.60;99.90
4530;DHT22;2277;51.626;7.516;2024-03-06T11:26:36;15.70;99.90
4530;DHT22;2277;51.626;7.516;2024-03-06T11:29:02;15.80;99.90
4530;DHT22;2277;51.626;7.516;2024-03-06T11:31:27;16.00;99.90
4530;DHT22;2277;51.626;7.516;2024-03-06T11:33:53;16.20;99.90
4530;DHT22;2277;51.626;7.516;2024-03-06T11:36:28;16.40;99.90
4530;DHT22;2277;51.626;7.516;2024-03-06T11:39:02;16.70;99.90
4530;DHT22;2277;51.626;7.516;2024-03-06T11:41:49;16.90;99.90
4530;DHT22;2277;51.626;7.516;2024-03-06T11:44:16;17.20;99.90
4530;DHT22;2277;51.626;7.516;2024-03-06T11:46:47;17.20;99.90
4530;DHT22;2277;51.626;7.516;2024-03-06T11:49:23;17.00;99.90
4530;DHT22;2277;51.626;7.516;2024-03-06T11:51:59;17.00;99.90
4530;DHT22;2277;51.626;7.516;2024-03-06T11:54:25;16.90;99.90
4530;DHT22;2277;51.626;7.516;2024-03-06T11:56:59;16.90;99.90
4530;DHT22;2277;51.626;7.516;2024-03-06T11:59:26;16.80;99.90
4530;DHT22;2277;51.626;7.516;2024-03-06T12:01:53;16.70;99.90
4530;DHT22;2277;51.626;7.516;2024-03-06T12:04:20;16.70;99.90
4530;DHT22;2277;51.626;7.516;2024-03-06T12:06:46;16.70;99.90
4530;DHT22;2277;51.626;7.516;2024-03-06T12:09:12;16.50;99.90
4530;DHT22;2277;51.626;7.516;2024-03-06T12:11:37;16.40;99.90
4530;DHT22;2277;51.626;7.516;2024-03-06T12:14:03;16.40;99.90
4530;DHT22;2277;51.626;7.516;2024-03-06T12:16:29;16.40;99.90
4530;DHT22;2277;51.626;7.516;2024-03-06T12:18:58;16.30;99.90
4530;DHT22;2277;51.626;7.516;2024-03-06T12:21:33;16.30;99.90
4530;DHT22;2277;51.626;7.516;2024-03-06T12:24:07;16.10;99.90
4530;DHT22;2277;51.626;7.516;2024-03-06T12:26:33;16.00;99.90
4530;DHT22;2277;51.626;7.516;2024-03-06T12:29:06;16.00;99.90
4530;DHT22;2277;51.626;7.516;2024-03-06T12:31:32;16.10;99.90
4530;DHT22;2277;51.626;7.516;2024-03-06T12:33:59;16.00;99.90
4530;DHT22;2277;51.626;7.516;2024-03-06T12:36:25;15.70;99.90
4530;DHT22;2277;51.626;7.516;2024-03-06T12:38:54;15.70;99.90
4530;DHT22;2277;51.626;7.516;2024-03-06T12:41:20;15.90;99.90
4530;DHT22;2277;51.626;7.516;2024-03-06T12:43:46;16.10;99.90
4530;DHT22;2277;51.626;7.516;2024-03-06T12:46:11;16.30;99.90
4530;DHT22;2277;51.626;7.516;2024-03-06T12:48:37;16.60;99.90
4530;DHT22;2277;51.626;7.516;2024-03-06T12:51:03;16.60;99.90
4530;DHT22;2277;51.626;7.516;2024-03-06T12:53:30;16.80;99.90
4530;DHT22;2277;51.626;7.516;2024-03-06T12:55:56;16.90;99.90
4530;DHT22;2277;51.626;7.516;2024-03-06T12:58:22;17.10;99.90
4530;DHT22;2277;51.626;7.516;2024-03-06T13:00:47;17.10;99.90
4530;DHT22;2277;51.626;7.516;2024-03-06T13:03:13;17.10;99.90
4530;DHT22;2277;51.626;7.516;2024-03-06T13:05:38;17.00;99.90
4530;DHT22;2277;51.626;7.516;2024-03-06T13:08:04;17.10;99.90
4530;DHT22;2277;51.626;7.516;2024-03-06T13:10:30;17.00;99.90
4530;DHT22;2277;51.626;7.516;2024-03-06T13:12:55;17.20;99.90
4530;DHT22;2277;51.626;7.516;2024-03-06T13:15:21;17.40;99.90
4530;DHT22;2277;51.626;7.516;2024-03-06T13:17:47;17.60;99.90
4530;DHT22;2277;51.626;7.516;2024-03-06T13:20:13;17.80;99.90
4530;DHT22;2277;51.626;7.516;2024-03-06T13:22:39;18.00;99.90
4530;DHT22;2277;51.626;7.516;2024-03-06T13:25:05;18.20;99.90
4530;DHT22;2277;51.626;7.516;2024-03-06T13:27:32;18.40;99.90
4530;DHT22;2277;51.626;7.516;2024-03-06T13:29:57;18.60;99.90
4530;DHT22;2277;51.626;7.516;2024-03-06T13:32:23;18.80;99.90
4530;DHT22;2277;51.626;7.516;2024-03-06T13:34:49;18.90;99.90
4530;DHT22;2277;51.626;7.516;2024-03-06T13:37:15;19.10;99.90
4530;DHT22;2277;51.626;7.516;2024-03-06T13:39:41;19.30;99.90
4530;DHT22;2277;51.626;7.516;2024-03-06T13:42:07;19.40;98.70
4530;DHT22;2277;51.626;7.516;2024-03-06T13:44:36;19.00;95.30
4530;DHT22;2277;51.626;7.516;2024-03-06T13:47:02;19.20;99.90
4530;DHT22;2277;51.626;7.516;2024-03-06T13:49:36;19.30;97.40
4530;DHT22;2277;51.626;7.516;2024-03-06T13:52:03;19.50;95.40
4530;DHT22;2277;51.626;7.516;2024-03-06T13:54:30;19.60;94.10
4530;DHT22;2277;51.626;7.516;2024-03-06T13:56:56;19.70;95.40
4530;DHT22;2277;51.626;7.516;2024-03-06T13:59:28;19.80;91.60
4530;DHT22;2277;51.626;7.516;2024-03-06T14:01:53;19.20;85.50
4530;DHT22;2277;51.626;7.516;2024-03-06T14:04:19;19.20;88.50
4530;DHT22;2277;51.626;7.516;2024-03-06T14:06:45;19.30;89.70
4530;DHT22;2277;51.626;7.516;2024-03-06T14:09:11;19.40;91.30
4530;DHT22;2277;51.626;7.516;2024-03-06T14:11:39;19.60;92.50
4530;DHT22;2277;51.626;7.516;2024-03-06T14:14:05;19.80;90.70
4530;DHT22;2277;51.626;7.516;2024-03-06T14:16:31;19.50;89.80
4530;DHT22;2277;51.626;7.516;2024-03-06T14:18:57;19.20;90.70
4530;DHT22;2277;51.626;7.516;2024-03-06T14:21:22;19.40;93.50
4530;DHT22;2277;51.626;7.516;2024-03-06T14:23:48;19.30;93.30
4530;DHT22;2277;51.626;7.516;2024-03-06T14:26:14;19.10;94.50
4530;DHT22;2277;51.626;7.516;2024-03-06T14:28:40;19.00;94.30
4530;DHT22;2277;51.626;7.516;2024-03-06T14:31:05;18.90;96.50
4530;DHT22;2277;51.626;7.516;2024-03-06T14:33:31;18.80;94.80
4530;DHT22;2277;51.626;7.516;2024-03-06T14:35:57;18.60;94.30
4530;DHT22;2277;51.626;7.516;2024-03-06T14:38:22;18.60;94.60
4530;DHT22;2277;51.626;7.516;2024-03-06T14:40:48;18.50;94.30
4530;DHT22;2277;51.626;7.516;2024-03-06T14:43:13;18.50;96.50
4530;DHT22;2277;51.626;7.516;2024-03-06T14:45:39;18.30;95.00
4530;DHT22;2277;51.626;7.516;2024-03-06T14:48:08;18.30;96.10
